Latest Coastal Weather Observations for Brisbane Airport

IDQ60701

Issued at 11:11 pm EST Monday 24 April 2017 (issued every 10 minutes, with the page automatically refreshed every 10 minutes)

About coastal observations | Map of coastal stations | Coastal observations for QLD | Marine services | Other Formats
Station Details ID: 040842 Name: BRISBANE AERO Lat: -27.39 Lon: 153.13 Height: 4.51 m
Data from the previous 72 hours. | See also: Recent months at Brisbane Airport
Date/Time
EST
Temp
°C
Wind Pressure Rain since
9am
mm
Weather Cloud Vis
km
Sea
Height
m
Swell
Dir  Spd
kts
Gust
kts
hPa Trend Height
m
Period
s
Dir
24/11:00pm 17.7 SSW 5 5 1020.2 - 0.0 - Mostly clear 10 - - - -
24/10:30pm 18.3 S 5 6 1020.2 - 0.0 - Mostly clear 10 - - - -
24/10:00pm 18.7 SSW 5 6 1020.6 - 0.0 - Mostly clear 10 - - - -
24/09:30pm 18.3 CALM 0 0 1020.7 - 0.0 - Mostly clear 10 - - - -
24/09:00pm 18.6 CALM 0 1 1020.5 F 0.0 Fine Clear 30 - - - -
24/08:30pm 19.1 ESE 1 5 1020.5 - 0.0 - - 10 - - - -
24/08:00pm 19.2 ESE 4 5 1020.4 - 0.0 - - 10 - - - -
24/07:30pm 20.8 ESE 5 6 1020.2 - 0.0 - Mostly clear 10 - - - -
24/07:00pm 21.0 ESE 5 7 1019.9 - 0.0 - Mostly clear 10 - - - -
24/06:30pm 21.4 ESE 5 9 1019.6 - 0.0 - Mostly clear 10 - - - -
24/06:00pm 21.7 ESE 6 9 1019.4 F 0.0 Fine Mostly clear 30 - - - -
24/05:30pm 21.7 ESE 6 9 1019.2 - 0.0 - Mostly clear 10 - - - -
24/05:00pm 22.3 ESE 7 12 1018.9 - 0.0 - Mostly clear 10 - - - -
24/04:30pm 22.8 ESE 7 10 1018.8 - 0.0 - Mostly clear 10 - - - -
24/04:00pm 22.8 ESE 7 9 1018.7 - 0.0 - Mostly clear 10 - - - -
24/03:30pm 22.7 ESE 7 10 1018.7 - 0.0 - Mostly clear 10 - - - -
24/03:00pm 22.8 ENE 7 9 1018.6 S 0.0 Distant precip. Partly cloudy 30 - - - -
24/02:30pm 23.9 ENE 9 13 1018.7 - 0.0 - Partly cloudy 10 - - - -
24/02:00pm 23.5 ENE 8 15 1018.9 - 0.0 - Partly cloudy 10 - - - -
24/01:30pm 24.4 E 9 13 1019.1 - 0.0 - Partly cloudy 10 - - - -
24/01:00pm 24.3 ESE 8 13 1019.3 - 0.0 - Partly cloudy 10 - - - -
24/12:30pm 23.8 E 7 11 1019.5 - 0.0 - Partly cloudy 10 - - - -
24/12:00pm 23.9 E 9 14 1020.1 F 0.0 Fine Partly cloudy 30 - - - -
24/11:30am 23.0 ESE 8 13 1020.5 - 0.0 - Partly cloudy 10 - - - -
24/11:00am 24.1 ESE 8 12 1021.0 - 0.0 - Partly cloudy 10 - - - -
24/10:30am 24.3 ESE 7 11 1021.4 - 0.0 - Partly cloudy 10 - - - -
24/10:00am 23.1 S 5 9 1021.6 - 0.0 - Mostly clear 10 - - - -
24/09:30am 22.6 S 7 10 1021.7 - 0.0 - Mostly clear 10 - - - -
24/09:00am 21.8 SSW 7 10 1021.7 R 0.0 Fine Mostly clear 30 - - - -
24/08:30am 20.5 SSW 6 9 1021.6 - 0.0 - Mostly clear 10 - - - -
24/08:00am 19.1 S 4 7 1021.7 - 0.0 - Mostly clear 10 - - - -
24/07:30am 17.8 SSW 7 9 1021.2 - 0.0 - Mostly clear 10 - - - -
24/07:00am 16.7 SSW 7 9 1020.9 - 0.0 - Mostly clear 10 - - - -
24/06:30am 16.1 SSW 8 9 1020.6 - 0.0 - Mostly clear 10 - - - -
24/06:00am 15.8 SSW 7 10 1020.4 F 0.0 Distant precip. Partly cloudy 30 - - - -
24/05:30am 15.9 SSW 8 9 1020.2 - 0.0 - Mostly clear 10 - - - -
24/05:00am 16.0 SSW 7 8 1019.9 - 0.0 - Mostly clear 10 - - - -
24/04:30am 17.2 SSW 8 9 1019.9 - 0.0 - Mostly clear 10 - - - -
24/04:00am 16.8 SSW 6 9 1019.9 - 0.0 - Mostly clear 10 - - - -
24/03:30am 17.3 SSW 6 8 1019.9 - 0.0 - Mostly clear 10 - - - -
24/03:00am 18.0 SSW 6 7 1020.2 F 0.0 Fine Partly cloudy 30 - - - -
24/02:30am 18.3 SSW 6 8 1020.3 - 0.0 - Mostly clear 10 - - - -
24/02:00am 17.7 SSW 6 7 1020.7 - 0.0 - Mostly clear 10 - - - -
24/01:30am 18.2 SSW 5 6 1020.8 - 0.0 - Mostly clear 10 - - - -
24/01:00am 18.3 S 5 5 1020.9 - 0.0 - Mostly clear 10 - - - -
24/12:30am 17.8 SSW 5 6 1021.3 - 0.0 - Mostly clear 10 - - - -
24/12:00am 18.4 S 5 7 1021.5 F 0.0 Fine Mostly clear 30 - - - -
 
Date/Time
EST
Temp
°C
Wind Pressure Rain since
9am
mm
Weather Cloud Vis
km
Sea
Height
m
Swell
Dir  Spd
kts
Gust
kts
hPa Trend Height
m
Period
s
Dir
23/11:30pm 18.2 SSW 5 6 1021.8 - 0.0 - Mostly clear 10 - - - -
23/11:00pm 19.1 S 5 7 1021.8 - 0.0 - Mostly clear 10 - - - -
23/10:30pm 19.2 SSW 3 5 1021.9 - 0.0 - Mostly clear 10 - - - -
23/10:00pm 19.3 SE 3 5 1021.9 - 0.0 - Mostly clear 10 - - - -
23/09:30pm 20.3 SE 4 6 1022.1 - 0.0 - - 10 - - - -
23/09:00pm 20.5 SE 5 8 1022.1 F 0.0 Fine Mostly clear 30 - - - -
23/08:30pm 20.8 ESE 5 8 1022.0 - 0.0 - - 10 - - - -
23/08:00pm 20.8 ESE 5 8 1021.8 - 0.0 - - 10 - - - -
23/07:30pm 21.0 ESE 6 9 1021.6 - 0.0 - Mostly clear 10 - - - -
23/07:00pm 21.2 SE 5 7 1021.5 - 0.0 - Mostly clear 10 - - - -
23/06:30pm 21.3 SE 5 7 1021.2 - 0.0 - Mostly clear 10 - - - -
23/06:00pm 21.6 SE 6 11 1020.9 F 0.0 Fine Mostly clear 30 - - - -
23/05:30pm 21.9 SE 5 9 1020.7 - 0.0 - Mostly clear 10 - - - -
23/05:00pm 22.4 SE 6 9 1020.5 - 0.0 - Mostly clear 10 - - - -
23/04:30pm 22.6 ESE 7 11 1020.3 - 0.0 - Mostly clear 10 - - - -
23/04:00pm 22.7 ESE 8 12 1020.0 - 0.0 - Mostly clear 10 - - - -
23/03:30pm 23.4 ESE 9 14 1019.9 - 0.0 - Mostly clear 10 - - - -
23/03:00pm 23.9 ESE 9 13 1019.9 R 0.0 Fine Partly cloudy 30 - - - -
23/02:30pm 23.7 ESE 11 16 1019.9 - 0.0 - Partly cloudy 10 - - - -
23/02:00pm 23.9 ESE 9 16 1020.3 - 0.0 - Partly cloudy 10 - - - -
23/01:30pm 24.2 E 9 15 1020.3 - 0.0 - Partly cloudy 10 - - - -
23/01:00pm 24.7 E 9 14 1020.6 - 0.0 - Partly cloudy 10 - - - -
23/12:30pm 24.7 ESE 10 15 1020.8 - 0.0 - Partly cloudy 10 - - - -
23/12:00pm 24.2 ESE 9 14 1021.3 F 0.0 Fine Partly cloudy 30 - - - -
23/11:30am 24.4 ESE 9 14 1021.6 - 0.0 - Partly cloudy 10 - - - -
23/11:00am 24.2 SE 9 14 1022.1 - 0.0 - Partly cloudy 10 - - - -
23/10:30am 24.3 SE 9 15 1022.5 - 0.0 - Mostly clear 10 - - - -
23/10:00am 23.9 SE 8 13 1022.8 - 0.0 - Mostly clear 10 - - - -
23/09:30am 22.7 S 7 9 1023.0 - 0.0 - Mostly clear 10 - - - -
23/09:00am 21.7 S 7 10 1023.1 F 0.0 Fine Mostly clear 30 - - - -
23/08:30am 20.3 S 6 10 1023.2 - 0.0 - Mostly clear 10 - - - -
23/08:00am 19.1 SSW 8 10 1023.0 - 0.0 - Mostly clear 10 - - - -
23/07:30am 17.5 SSW 8 11 1023.0 - 0.0 - Mostly clear 10 - - - -
23/07:00am 16.0 SSW 7 10 1022.6 - 0.0 - Mostly clear 10 - - - -
23/06:30am 14.1 SSW 7 8 1022.3 - 0.0 - - 10 - - - -
23/06:00am 14.5 SSW 6 7 1022.2 S 0.0 Fine Partly cloudy 30 - - - -
23/05:30am 15.1 SSW 7 8 1022.0 - 0.0 - Partly cloudy 10 - - - -
23/05:00am 15.4 SSW 8 10 1021.7 - 0.0 - - 10 - - - -
23/04:30am 14.8 SSW 7 9 1021.5 - 0.0 - - 10 - - - -
23/04:00am 15.1 SSW 7 9 1021.3 - 0.0 - - 10 - - - -
23/03:30am 15.7 SSW 6 7 1021.3 - 0.0 - - 10 - - - -
23/03:00am 15.5 SSW 6 8 1021.4 F 0.0 Fine Mostly cloudy 30 - - - -
23/02:30am 15.6 SSW 6 8 1021.5 - 0.0 - - 10 - - - -
23/02:00am 16.7 SSW 6 8 1021.6 - 0.0 - - 10 - - - -
23/01:30am 16.4 SSW 9 10 1022.0 - 0.0 - - 10 - - - -
23/01:00am 16.9 SSW 5 7 1022.3 - 0.0 - - 10 - - - -
23/12:30am 16.6 SSW 6 7 1022.7 - 0.0 - - 10 - - - -
23/12:00am 16.9 SSW 5 6 1023.0 F 0.0 Fine Mostly cloudy 30 - - - -
 
Date/Time
EST
Temp
°C
Wind Pressure Rain since
9am
mm
Weather Cloud Vis
km
Sea
Height
m
Swell
Dir  Spd
kts
Gust
kts
hPa Trend Height
m
Period
s
Dir
22/11:30pm 18.1 SSW 5 7 1023.4 - 0.0 - - 10 - - - -
22/11:00pm 17.6 SSW 6 7 1023.6 - 0.0 - - 10 - - - -
22/10:30pm 18.8 S 5 6 1023.7 - 0.0 - - 10 - - - -
22/10:00pm 19.4 S 5 8 1023.8 - 0.0 - - 10 - - - -
22/09:30pm 20.0 S 5 7 1023.9 - 0.0 - - 10 - - - -
22/09:00pm 20.1 SSE 4 6 1024.0 F 0.0 Fine Mostly cloudy 30 - - - -
22/08:30pm 20.4 SSE 5 8 1023.8 - 0.0 - - 10 - - - -
22/08:00pm 21.1 SE 5 9 1023.8 - 0.0 - - 10 - - - -
22/07:30pm 21.4 SE 5 7 1023.5 - 0.0 - - 10 - - - -
22/07:00pm 21.2 SE 6 10 1023.1 - 0.0 - - 10 - - - -
22/06:30pm 21.2 SE 7 10 1022.9 - 0.0 - - 10 - - - -
22/06:00pm 21.6 SE 7 12 1022.7 R 0.0 Fine Mostly cloudy 30 - - - -
22/05:30pm 21.7 ESE 9 14 1022.5 - 0.0 - Mostly clear 10 - - - -
22/05:00pm 22.0 ESE 9 15 1022.3 - 0.0 - Mostly clear 10 - - - -
22/04:30pm 22.2 ESE 8 14 1022.1 - 0.0 - Mostly clear 10 - - - -
22/04:00pm 22.7 ESE 9 16 1021.9 - 0.0 - Mostly clear 10 - - - -
22/03:30pm 23.2 SE 10 16 1021.8 - 0.0 - Mostly clear 10 - - - -
22/03:00pm 23.6 SE 12 18 1021.5 F 0.0 Fine Mostly cloudy 30 - - - -
22/02:30pm 23.8 ESE 10 18 1021.6 - 0.0 - Mostly clear 10 - - - -
22/02:00pm 23.9 ESE 12 18 1021.8 - 0.0 - Mostly clear 10 - - - -
22/01:30pm 24.0 ESE 12 19 1021.8 - 0.0 - Mostly clear 10 - - - -
22/01:00pm 23.8 ESE 11 17 1022.3 - 0.0 - Mostly clear 10 - - - -
22/12:30pm 23.5 ESE 10 16 1022.6 - 0.0 - Mostly clear 10 - - - -
22/12:00pm 23.5 SE 10 18 1023.1 F 0.0 Distant precip. Mostly cloudy 25 - - - -
22/11:30am 22.8 ESE 10 15 1023.7 - 0.0 - Mostly clear 10 - - - -
22/11:00am 22.7 SE 7 13 1024.1 - 0.0 - Mostly clear 10 - - - -
22/10:30am 21.9 S 6 10 1024.4 - 0.0 - Mostly clear 10 - - - -
22/10:00am 21.1 S 6 8 1024.7 - 0.0 - Mostly clear 10 - - - -
22/09:30am 20.1 S 7 10 1024.7 - 0.0 - Mostly clear 10 - - - -
22/09:00am 20.1 S 6 9 1024.6 F 0.6 Fine Mostly cloudy 20 - - - -
22/08:30am 18.9 SSW 7 9 1024.6 - 0.6 - Mostly clear 10 - - - -
22/08:00am 18.3 SSW 6 7 1024.6 - 0.6 - Mostly clear 10 - - - -
22/07:30am 18.0 SSW 7 9 1024.5 - 0.4 Rain Mostly clear 7 - - - -
22/07:00am 17.9 SSW 5 6 1024.4 - 0.2 - Mostly clear 6 - - - -
22/06:30am 17.8 SSW 4 6 1023.8 - 0.2 - Mostly clear 10 - - - -
22/06:00am 17.7 SSW 6 8 1023.6 R 0.2 Drizzle Cloudy 12 - - - -
22/05:30am 17.5 SSW 7 10 1023.1 - 0.2 Showers Mostly clear 9 - - - -
22/05:00am 17.6 SSW 7 10 1023.1 - 0.2 - Mostly clear 10 - - - -
22/04:30am 17.4 SSW 6 8 1022.7 - 0.2 - Mostly clear 10 - - - -
22/04:00am 17.2 SSW 8 12 1022.3 - 0.2 - Mostly clear 10 - - - -
22/03:30am 17.2 SSW 8 11 1022.4 - 0.2 - Mostly clear 10 - - - -
22/03:00am 17.4 SSW 7 9 1022.6 R 0.2 Fine Mostly cloudy 30 - - - -
22/02:30am 17.5 SSW 8 12 1022.8 - 0.2 Showers Mostly clear 10 - - - -
22/02:00am 17.6 SSW 7 9 1022.7 - 0.2 - Mostly clear 10 - - - -
22/01:30am 18.0 SSW 8 10 1022.9 - 0.2 - Mostly clear 10 - - - -
22/01:00am 18.2 SSW 7 9 1023.3 - 0.0 - Partly cloudy 9 - - - -
22/12:30am 18.2 SSW 7 11 1023.5 - 0.0 - Mostly clear 10 - - - -
22/12:00am 18.3 S 7 10 1023.5 F 0.0 Fine Cloudy 30 - - - -
 
Date/Time
EST
Temp
°C
Wind Pressure Rain since
9am
mm
Weather Cloud Vis
km
Sea
Height
m
Swell
Dir  Spd
kts
Gust
kts
hPa Trend Height
m
Period
s
Dir
21/11:30pm 18.5 SSW 7 10 1023.8 - 0.0 - Mostly clear 10 - - - -

Other Formats:

Comma delimited format used in spreadsheet applications
http://www.bom.gov.au/fwo/IDQ60701/IDQ60701.94578.axf

JavaScript Object Notation format (JSON) in row-major order
http://www.bom.gov.au/fwo/IDQ60701/IDQ60701.94578.json